createdAt,value
2017-07-31T00:00:17.856Z,1007.02
2017-07-31T00:01:26.878Z,1007.06
2017-07-31T00:02:36.243Z,1007.05
2017-07-31T00:03:45.370Z,1007.11
2017-07-31T00:04:54.454Z,1007.1
2017-07-31T00:06:03.439Z,1007.13
2017-07-31T00:07:12.492Z,1007.12
2017-07-31T00:08:21.568Z,1007.12
2017-07-31T00:09:30.642Z,1007.15
2017-07-31T00:10:39.905Z,1007.21
2017-07-31T00:11:49.326Z,1007.23
2017-07-31T00:12:58.517Z,1007.21
2017-07-31T00:14:07.653Z,1007.21
2017-07-31T00:15:16.862Z,1007.23
2017-07-31T00:16:25.909Z,1007.27
2017-07-31T00:17:34.992Z,1007.29
2017-07-31T00:18:43.967Z,1007.32
2017-07-31T00:19:53.509Z,1007.37
2017-07-31T00:21:02.772Z,1007.35
2017-07-31T00:22:11.917Z,1007.35
2017-07-31T00:23:21.056Z,1007.35
2017-07-31T00:24:30.137Z,1007.37
2017-07-31T00:25:39.131Z,1007.39
2017-07-31T00:26:48.418Z,1007.36
2017-07-31T00:27:58.119Z,1007.33
2017-07-31T00:29:07.211Z,1007.38
2017-07-31T00:30:16.430Z,1007.36
2017-07-31T00:31:25.390Z,1007.31
2017-07-31T00:32:34.350Z,1007.29
2017-07-31T00:33:43.632Z,1007.34
2017-07-31T00:34:52.594Z,1007.33
2017-07-31T00:36:01.881Z,1007.33
2017-07-31T00:37:11.170Z,1007.34
2017-07-31T00:38:20.136Z,1007.29
2017-07-31T00:39:29.418Z,1007.33
2017-07-31T00:40:38.383Z,1007.32
2017-07-31T00:41:47.347Z,1007.34
2017-07-31T00:42:56.308Z,1007.35
2017-07-31T00:44:05.271Z,1007.32
2017-07-31T00:45:14.228Z,1007.37
2017-07-31T00:46:23.193Z,1007.34
2017-07-31T00:47:32.472Z,1007.36
2017-07-31T00:48:41.446Z,1007.38
2017-07-31T00:49:50.408Z,1007.45
2017-07-31T00:50:59.389Z,1007.48
2017-07-31T00:52:08.347Z,1007.53
2017-07-31T00:53:17.303Z,1007.63
2017-07-31T00:54:26.258Z,1007.69
2017-07-31T00:55:35.214Z,1007.7
2017-07-31T00:56:44.182Z,1007.72
2017-07-31T00:57:53.135Z,1007.68
2017-07-31T00:59:02.094Z,1007.61
2017-07-31T01:00:11.061Z,1007.6
2017-07-31T01:01:20.022Z,1007.6
2017-07-31T01:02:28.981Z,1007.61
2017-07-31T01:03:37.942Z,1007.67
2017-07-31T01:04:46.896Z,1007.72
2017-07-31T01:05:55.858Z,1007.78
2017-07-31T01:07:04.899Z,1007.81
2017-07-31T01:08:13.859Z,1007.8
2017-07-31T01:09:23.150Z,1007.79
2017-07-31T01:10:32.116Z,1007.8
2017-07-31T01:11:41.076Z,1007.82
2017-07-31T01:12:50.368Z,1007.84
2017-07-31T01:13:59.340Z,1007.86
2017-07-31T01:15:08.297Z,1007.9
2017-07-31T01:16:17.266Z,1007.88
2017-07-31T01:17:26.231Z,1007.85
2017-07-31T01:18:35.191Z,1007.8
2017-07-31T01:19:44.167Z,1007.78
2017-07-31T01:20:53.142Z,1007.76
2017-07-31T01:22:02.104Z,1007.81
2017-07-31T01:23:11.060Z,1007.85
2017-07-31T01:24:20.013Z,1007.82
2017-07-31T01:25:29.289Z,1007.89
2017-07-31T01:26:38.250Z,1007.92
2017-07-31T01:27:47.216Z,1007.89
2017-07-31T01:28:56.167Z,1007.88
2017-07-31T01:30:05.123Z,1007.87
2017-07-31T01:31:14.083Z,1007.81
2017-07-31T01:32:23.047Z,1007.84
2017-07-31T01:33:32.002Z,1007.79
2017-07-31T01:34:40.952Z,1007.78
2017-07-31T01:35:49.923Z,1007.74
2017-07-31T01:36:58.872Z,1007.79
2017-07-31T01:38:07.839Z,1007.79
2017-07-31T01:39:16.805Z,1007.75
2017-07-31T01:40:25.764Z,1007.73
2017-07-31T01:41:34.738Z,1007.72
2017-07-31T01:42:43.695Z,1007.73
2017-07-31T01:43:52.648Z,1007.68
2017-07-31T01:45:01.600Z,1007.71
2017-07-31T01:46:10.561Z,1007.69
2017-07-31T01:47:19.523Z,1007.73
2017-07-31T01:48:28.480Z,1007.71
2017-07-31T01:49:37.441Z,1007.71
2017-07-31T01:50:46.408Z,1007.72
2017-07-31T01:51:55.372Z,1007.68
2017-07-31T01:53:04.341Z,1007.63
2017-07-31T01:54:13.294Z,1007.63
2017-07-31T01:55:22.276Z,1007.61
2017-07-31T01:56:31.240Z,1007.57
2017-07-31T01:57:40.527Z,1007.59
2017-07-31T01:58:49.478Z,1007.57
2017-07-31T01:59:58.447Z,1007.51
2017-07-31T02:01:07.734Z,1007.51
2017-07-31T02:02:16.697Z,1007.55
2017-07-31T02:03:25.665Z,1007.54
2017-07-31T02:04:34.624Z,1007.59
2017-07-31T02:05:43.580Z,1007.54
2017-07-31T02:06:52.543Z,1007.54
2017-07-31T02:08:01.509Z,1007.53
2017-07-31T02:09:10.463Z,1007.53
2017-07-31T02:10:19.431Z,1007.53
2017-07-31T02:11:28.395Z,1007.56
2017-07-31T02:12:37.363Z,1007.55
2017-07-31T02:13:46.643Z,1007.62
2017-07-31T02:14:55.600Z,1007.66
2017-07-31T02:16:04.556Z,1007.71
2017-07-31T02:17:13.844Z,1007.77
2017-07-31T02:18:22.802Z,1007.77
2017-07-31T02:19:31.763Z,1007.83
2017-07-31T02:20:40.719Z,1007.87
2017-07-31T02:21:49.671Z,1007.88
2017-07-31T02:22:58.637Z,1007.9
2017-07-31T02:24:07.601Z,1007.91
2017-07-31T02:25:16.557Z,1007.84
2017-07-31T02:26:25.518Z,1007.82
2017-07-31T02:27:34.476Z,1007.82
2017-07-31T02:28:43.445Z,1007.83
2017-07-31T02:29:52.419Z,1007.84
2017-07-31T02:31:01.725Z,1007.84
2017-07-31T02:32:10.680Z,1007.88
2017-07-31T02:33:19.645Z,1007.84
2017-07-31T02:34:28.617Z,1007.87
2017-07-31T02:35:37.908Z,1007.87
2017-07-31T02:36:46.870Z,1007.83
2017-07-31T02:37:55.833Z,1007.82
2017-07-31T02:39:04.805Z,1007.8
2017-07-31T02:40:13.789Z,1007.8
2017-07-31T02:41:22.748Z,1007.76
2017-07-31T02:42:31.705Z,1007.82
2017-07-31T02:43:40.673Z,1007.83
2017-07-31T02:44:49.656Z,1007.82
2017-07-31T02:45:58.626Z,1007.79
2017-07-31T02:47:07.586Z,1007.79
2017-07-31T02:48:16.559Z,1007.8
2017-07-31T02:49:25.531Z,1007.79
2017-07-31T02:50:34.813Z,1007.79
2017-07-31T02:51:43.775Z,1007.78
2017-07-31T02:52:53.059Z,1007.8
2017-07-31T02:54:02.015Z,1007.82
2017-07-31T02:55:10.979Z,1007.89
2017-07-31T02:56:19.930Z,1007.87
2017-07-31T02:57:28.890Z,1007.89
2017-07-31T02:58:37.853Z,1007.89
2017-07-31T02:59:46.818Z,1007.95
2017-07-31T03:00:55.778Z,1007.96
2017-07-31T03:02:04.743Z,1007.95
2017-07-31T03:03:13.701Z,1007.93
2017-07-31T03:04:22.661Z,1007.93
2017-07-31T03:05:31.619Z,1007.96
2017-07-31T03:06:40.569Z,1007.94
2017-07-31T03:07:49.525Z,1007.97
2017-07-31T03:08:58.487Z,1008
2017-07-31T03:10:07.447Z,1008.01
2017-07-31T03:11:16.407Z,1008.04
2017-07-31T03:12:25.695Z,1008.03
2017-07-31T03:13:34.973Z,1008.08
2017-07-31T03:14:43.929Z,1008.1
2017-07-31T03:15:52.891Z,1008.07
2017-07-31T03:17:01.856Z,1008.04
2017-07-31T03:18:10.825Z,1008.04
2017-07-31T03:19:19.786Z,1008.04
2017-07-31T03:20:28.744Z,1008.02
2017-07-31T03:21:37.707Z,1008.1
2017-07-31T03:22:46.983Z,1008.09
2017-07-31T03:23:56.239Z,1008.14
2017-07-31T03:25:05.524Z,1008.17
2017-07-31T03:26:14.489Z,1008.21
2017-07-31T03:27:23.453Z,1008.28
2017-07-31T03:28:32.402Z,1008.26
2017-07-31T03:29:41.364Z,1008.29
2017-07-31T03:30:50.328Z,1008.3
2017-07-31T03:31:59.621Z,1008.27
2017-07-31T03:33:09.230Z,1008.25
2017-07-31T03:34:18.523Z,1008.2
2017-07-31T03:35:27.486Z,1008.19
2017-07-31T03:36:36.447Z,1008.24
2017-07-31T03:37:45.410Z,1008.24
2017-07-31T03:38:54.369Z,1008.21
2017-07-31T03:40:03.335Z,1008.2
2017-07-31T03:41:12.312Z,1008.19
2017-07-31T03:42:21.284Z,1008.19
2017-07-31T03:43:30.252Z,1008.23
2017-07-31T03:44:39.214Z,1008.2
2017-07-31T03:45:48.827Z,1008.21
2017-07-31T03:46:57.777Z,1008.25
2017-07-31T03:48:06.740Z,1008.22
2017-07-31T03:49:15.689Z,1008.19
2017-07-31T03:50:24.652Z,1008.19
2017-07-31T03:51:33.612Z,1008.21
2017-07-31T03:52:42.569Z,1008.22
2017-07-31T03:53:51.556Z,1008.2
2017-07-31T03:55:00.508Z,1008.22
2017-07-31T03:56:09.470Z,1008.25
2017-07-31T03:57:18.436Z,1008.31
2017-07-31T03:58:27.726Z,1008.34
2017-07-31T03:59:36.682Z,1008.32
2017-07-31T04:00:45.651Z,1008.35
2017-07-31T04:01:54.616Z,1008.34
2017-07-31T04:03:03.584Z,1008.37
2017-07-31T04:04:12.873Z,1008.37
2017-07-31T04:05:22.168Z,1008.39
2017-07-31T04:06:31.135Z,1008.39
2017-07-31T04:07:40.090Z,1008.42
2017-07-31T04:08:49.040Z,1008.41
2017-07-31T04:09:57.999Z,1008.42
2017-07-31T04:11:07.291Z,1008.45
2017-07-31T04:12:16.263Z,1008.43
2017-07-31T04:13:25.214Z,1008.47
2017-07-31T04:14:34.168Z,1008.46
2017-07-31T04:15:43.119Z,1008.47
2017-07-31T04:16:52.085Z,1008.5
2017-07-31T04:18:01.058Z,1008.49
2017-07-31T04:19:10.017Z,1008.51
2017-07-31T04:20:18.974Z,1008.54
2017-07-31T04:21:27.940Z,1008.53
2017-07-31T04:22:36.903Z,1008.56
2017-07-31T04:23:45.864Z,1008.51
2017-07-31T04:24:54.822Z,1008.53
2017-07-31T04:26:04.128Z,1008.54
2017-07-31T04:27:13.428Z,1008.53
2017-07-31T04:28:22.397Z,1008.54
2017-07-31T04:29:31.363Z,1008.56
2017-07-31T04:30:40.323Z,1008.55
2017-07-31T04:31:49.284Z,1008.58
2017-07-31T04:32:58.238Z,1008.56
2017-07-31T04:34:07.202Z,1008.58
2017-07-31T04:35:16.155Z,1008.55
2017-07-31T04:36:25.444Z,1008.56
2017-07-31T04:37:34.428Z,1008.58
2017-07-31T04:38:43.704Z,1008.6
2017-07-31T04:39:52.669Z,1008.6
2017-07-31T04:41:01.971Z,1008.65
2017-07-31T04:42:10.929Z,1008.62
2017-07-31T04:43:19.895Z,1008.61
2017-07-31T04:44:29.175Z,1008.63
2017-07-31T04:45:38.135Z,1008.63
2017-07-31T04:46:47.106Z,1008.61
2017-07-31T04:47:56.054Z,1008.62
2017-07-31T04:49:05.014Z,1008.62
2017-07-31T04:50:13.976Z,1008.63
2017-07-31T04:51:22.940Z,1008.64
2017-07-31T04:52:31.902Z,1008.67
2017-07-31T04:53:41.188Z,1008.66
2017-07-31T04:54:50.148Z,1008.68
2017-07-31T04:55:59.433Z,1008.69
2017-07-31T04:57:08.395Z,1008.76
2017-07-31T04:58:17.356Z,1008.74
2017-07-31T04:59:26.315Z,1008.8
2017-07-31T05:00:35.589Z,1008.79
2017-07-31T05:01:44.550Z,1008.8
2017-07-31T05:02:53.523Z,1008.77
2017-07-31T05:04:02.483Z,1008.76
2017-07-31T05:05:11.453Z,1008.74
2017-07-31T05:06:20.404Z,1008.77
2017-07-31T05:07:29.363Z,1008.8
2017-07-31T05:08:38.314Z,1008.83
2017-07-31T05:09:47.272Z,1008.82
2017-07-31T05:10:56.232Z,1008.83
2017-07-31T05:12:05.206Z,1008.85
2017-07-31T05:13:14.157Z,1008.86
2017-07-31T05:14:23.118Z,1008.86
2017-07-31T05:15:32.088Z,1008.86
2017-07-31T05:16:41.382Z,1008.89
2017-07-31T05:17:50.346Z,1008.87
2017-07-31T05:18:59.308Z,1008.89
2017-07-31T05:20:08.263Z,1008.86
2017-07-31T05:21:17.234Z,1008.85
2017-07-31T05:22:26.192Z,1008.85
2017-07-31T05:23:35.143Z,1008.87
2017-07-31T05:24:44.108Z,1008.83
2017-07-31T05:25:53.069Z,1008.82
2017-07-31T05:27:02.033Z,1008.83
2017-07-31T05:28:10.987Z,1008.85
2017-07-31T05:29:19.945Z,1008.84
2017-07-31T05:30:28.904Z,1008.81
2017-07-31T05:31:37.860Z,1008.79
2017-07-31T05:32:46.821Z,1008.79
2017-07-31T05:33:55.777Z,1008.77
2017-07-31T05:35:04.782Z,1008.77
2017-07-31T05:36:13.737Z,1008.79
2017-07-31T05:37:22.703Z,1008.76
2017-07-31T05:38:31.663Z,1008.77
2017-07-31T05:39:40.619Z,1008.75
2017-07-31T05:40:49.578Z,1008.78
2017-07-31T05:41:58.528Z,1008.74
2017-07-31T05:43:07.490Z,1008.74
2017-07-31T05:44:16.445Z,1008.68
2017-07-31T05:45:25.407Z,1008.64
2017-07-31T05:46:34.368Z,1008.6
2017-07-31T05:47:43.655Z,1008.62
2017-07-31T05:48:52.613Z,1008.64
2017-07-31T05:50:01.919Z,1008.59
2017-07-31T05:51:11.220Z,1008.6
2017-07-31T05:52:20.169Z,1008.62
2017-07-31T05:53:29.128Z,1008.65
2017-07-31T05:54:38.736Z,1008.72
2017-07-31T05:55:48.027Z,1008.77
2017-07-31T05:56:56.982Z,1008.77
2017-07-31T05:58:05.943Z,1008.74
2017-07-31T05:59:14.911Z,1008.87
2017-07-31T06:00:23.916Z,1008.9
2017-07-31T06:01:33.194Z,1008.89
2017-07-31T06:02:42.148Z,1008.86
2017-07-31T06:03:51.116Z,1008.87
2017-07-31T06:05:00.081Z,1008.88
2017-07-31T06:06:09.060Z,1008.93
2017-07-31T06:07:18.020Z,1008.98
2017-07-31T06:08:26.973Z,1009.02
2017-07-31T06:09:35.945Z,1009.01
2017-07-31T06:10:45.222Z,1009.02
2017-07-31T06:11:54.192Z,1009.08
2017-07-31T06:13:03.152Z,1009.01
2017-07-31T06:14:12.116Z,1009.04
2017-07-31T06:15:21.077Z,1009.09
2017-07-31T06:16:30.040Z,1009.11
2017-07-31T06:17:38.995Z,1009.08
2017-07-31T06:18:48.278Z,1009.11
2017-07-31T06:19:57.240Z,1009.06
2017-07-31T06:21:06.557Z,1009.07
2017-07-31T06:22:15.613Z,1009.07
2017-07-31T06:23:24.570Z,1009.11
2017-07-31T06:24:33.530Z,1009.09
2017-07-31T06:25:42.501Z,1009.1
2017-07-31T06:26:51.461Z,1009.07
2017-07-31T06:28:00.421Z,1009.14
2017-07-31T06:29:09.392Z,1009.11
2017-07-31T06:30:18.350Z,1009.09
2017-07-31T06:31:27.310Z,1009.12
2017-07-31T06:32:36.597Z,1009.09
2017-07-31T06:33:45.560Z,1009.09
2017-07-31T06:34:54.514Z,1009.11
2017-07-31T06:36:03.841Z,1009.11
2017-07-31T06:37:12.806Z,1009.09
2017-07-31T06:38:22.089Z,1009.11
2017-07-31T06:39:31.050Z,1009.14
2017-07-31T06:40:40.013Z,1009.15
2017-07-31T06:41:48.967Z,1009.12
2017-07-31T06:42:57.935Z,1009.14
2017-07-31T06:44:06.903Z,1009.18
2017-07-31T06:45:16.189Z,1009.21
2017-07-31T06:46:25.535Z,1009.23
2017-07-31T06:47:35.146Z,1009.29
2017-07-31T06:48:44.309Z,1009.3
2017-07-31T06:49:53.305Z,1009.29
2017-07-31T06:51:02.645Z,1009.33
2017-07-31T06:52:11.658Z,1009.33
2017-07-31T06:53:20.978Z,1009.29
2017-07-31T06:54:30.062Z,1009.29
2017-07-31T06:55:39.109Z,1009.32
2017-07-31T06:56:48.146Z,1009.34
2017-07-31T06:57:57.167Z,1009.35
2017-07-31T06:59:06.126Z,1009.3
2017-07-31T07:00:15.089Z,1009.29
2017-07-31T07:01:24.377Z,1009.29
2017-07-31T07:02:33.337Z,1009.3
2017-07-31T07:03:42.291Z,1009.28
2017-07-31T07:04:51.259Z,1009.33
2017-07-31T07:06:00.307Z,1009.31
2017-07-31T07:07:09.497Z,1009.31
2017-07-31T07:08:18.866Z,1009.38
2017-07-31T07:09:27.861Z,1009.35
2017-07-31T07:10:36.829Z,1009.33
2017-07-31T07:11:46.106Z,1009.34
2017-07-31T07:12:55.066Z,1009.35
2017-07-31T07:14:04.030Z,1009.36
2017-07-31T07:15:13.003Z,1009.31
2017-07-31T07:16:21.966Z,1009.32
2017-07-31T07:17:30.932Z,1009.33
2017-07-31T07:18:40.206Z,1009.38
2017-07-31T07:19:49.164Z,1009.32
2017-07-31T07:20:58.453Z,1009.33
2017-07-31T07:22:07.738Z,1009.36
2017-07-31T07:23:16.705Z,1009.36
2017-07-31T07:24:25.667Z,1009.45
2017-07-31T07:25:34.950Z,1009.45
2017-07-31T07:26:43.903Z,1009.42
2017-07-31T07:27:52.861Z,1009.41
2017-07-31T07:29:01.823Z,1009.57
2017-07-31T07:30:10.961Z,1009.58
2017-07-31T07:31:19.935Z,1009.49
2017-07-31T07:32:29.534Z,1009.45
2017-07-31T07:33:38.557Z,1009.43
2017-07-31T07:34:47.738Z,1009.47
2017-07-31T07:35:56.702Z,1009.49
2017-07-31T07:37:05.693Z,1009.5
2017-07-31T07:38:14.730Z,1009.5
2017-07-31T07:39:23.690Z,1009.56
2017-07-31T07:40:32.660Z,1009.62
2017-07-31T07:41:41.614Z,1009.62
2017-07-31T07:42:51.608Z,1009.63
2017-07-31T07:44:00.570Z,1009.69
2017-07-31T07:45:09.536Z,1009.61
2017-07-31T07:46:18.511Z,1009.63
2017-07-31T07:47:27.472Z,1009.62
2017-07-31T07:48:36.475Z,1009.7
2017-07-31T07:49:45.432Z,1009.69
2017-07-31T07:50:54.402Z,1009.69
2017-07-31T07:52:03.622Z,1009.67
2017-07-31T07:53:12.588Z,1009.71
2017-07-31T07:54:21.557Z,1009.74
2017-07-31T07:55:30.520Z,1009.77
2017-07-31T07:56:39.487Z,1009.8
2017-07-31T07:57:48.460Z,1009.78
2017-07-31T07:58:57.423Z,1009.84
2017-07-31T08:00:06.717Z,1009.8
2017-07-31T08:01:16.007Z,1009.85
2017-07-31T08:02:25.006Z,1009.93
2017-07-31T08:03:33.967Z,1009.91
2017-07-31T08:04:42.925Z,1009.91
2017-07-31T08:05:51.913Z,1009.91
2017-07-31T08:07:00.882Z,1009.89
2017-07-31T08:08:09.845Z,1009.87
2017-07-31T08:09:18.808Z,1009.9
2017-07-31T08:10:27.769Z,1009.93
2017-07-31T08:11:36.730Z,1009.94
2017-07-31T08:12:45.688Z,1009.93
2017-07-31T08:13:54.971Z,1009.96
2017-07-31T08:15:03.928Z,1009.94
2017-07-31T08:16:12.887Z,1010.01
2017-07-31T08:17:22.172Z,1010.05
2017-07-31T08:18:31.493Z,1010.02
2017-07-31T08:19:40.507Z,1010.04
2017-07-31T08:20:49.638Z,1010.09
2017-07-31T08:21:58.739Z,1010.08
2017-07-31T08:23:07.824Z,1010.04
2017-07-31T08:25:26.279Z,1010.06
2017-07-31T08:26:35.326Z,1010.09
2017-07-31T08:27:44.337Z,1010.09
2017-07-31T08:28:53.653Z,1010.03
2017-07-31T08:30:03.260Z,1010.04
2017-07-31T08:31:12.218Z,1010.05
2017-07-31T08:32:21.170Z,1010.03
2017-07-31T08:33:30.125Z,1010.1
2017-07-31T08:34:39.092Z,1010.1
2017-07-31T08:35:48.060Z,1010.08
2017-07-31T08:36:57.038Z,1010.11
2017-07-31T08:38:06.002Z,1010.07
2017-07-31T08:39:14.960Z,1010.06
2017-07-31T08:40:23.913Z,1010.05
2017-07-31T08:41:32.886Z,1010.02
2017-07-31T08:42:41.852Z,1010.14
2017-07-31T08:43:50.817Z,1010.16
2017-07-31T08:44:59.780Z,1010.08
2017-07-31T08:46:09.088Z,1010.17
2017-07-31T08:47:18.069Z,1010.09
2017-07-31T08:48:27.028Z,1010.13
2017-07-31T08:49:36.363Z,1010.05
2017-07-31T08:50:45.719Z,1010.1
2017-07-31T08:51:54.876Z,1010.09
2017-07-31T08:53:04.001Z,1010.08
2017-07-31T08:54:13.105Z,1010.09
2017-07-31T08:55:22.181Z,1010.09
2017-07-31T08:56:31.143Z,1010.12
2017-07-31T08:57:40.114Z,1010.11
2017-07-31T08:58:49.075Z,1010.12
2017-07-31T08:59:58.046Z,1010.16
2017-07-31T09:01:07.007Z,1010.11
2017-07-31T09:02:16.056Z,1010.06
2017-07-31T09:03:25.017Z,1010.14
2017-07-31T09:04:34.308Z,1010.16
2017-07-31T09:05:43.278Z,1010.22
2017-07-31T09:06:52.244Z,1010.24
2017-07-31T09:08:01.208Z,1010.19
2017-07-31T09:09:10.179Z,1010.24
2017-07-31T09:10:19.149Z,1010.2
2017-07-31T09:11:28.114Z,1010.2
2017-07-31T09:12:37.073Z,1010.17
2017-07-31T09:13:46.037Z,1010.22
2017-07-31T09:14:55.000Z,1010.22
2017-07-31T09:16:03.968Z,1010.21
2017-07-31T09:17:13.253Z,1010.23
2017-07-31T09:18:22.218Z,1010.19
2017-07-31T09:19:31.180Z,1010.21
2017-07-31T09:20:40.137Z,1010.25
2017-07-31T09:21:49.744Z,1010.26
2017-07-31T09:22:58.709Z,1010.29
2017-07-31T09:24:08.002Z,1010.28
2017-07-31T09:25:16.965Z,1010.25
2017-07-31T09:26:25.925Z,1010.27
2017-07-31T09:27:34.891Z,1010.25
2017-07-31T09:28:43.852Z,1010.23
2017-07-31T09:29:52.808Z,1010.18
2017-07-31T09:31:01.766Z,1010.21
2017-07-31T09:32:10.729Z,1010.21
2017-07-31T09:33:20.014Z,1010.2
2017-07-31T09:34:28.971Z,1010.28
2017-07-31T09:35:37.934Z,1010.23
2017-07-31T09:36:46.888Z,1010.22
2017-07-31T09:37:55.843Z,1010.32
2017-07-31T09:39:04.822Z,1010.27
2017-07-31T09:40:13.790Z,1010.31
2017-07-31T09:41:22.750Z,1010.33
2017-07-31T09:42:31.713Z,1010.41
2017-07-31T09:43:40.993Z,1010.4
2017-07-31T09:44:49.958Z,1010.46
2017-07-31T09:45:58.927Z,1010.46
2017-07-31T09:47:07.903Z,1010.46
2017-07-31T09:48:16.866Z,1010.54
2017-07-31T09:49:25.834Z,1010.54
2017-07-31T09:50:34.795Z,1010.59
2017-07-31T09:51:43.743Z,1010.59
2017-07-31T09:52:52.695Z,1010.5
2017-07-31T09:54:01.657Z,1010.56
2017-07-31T09:55:10.624Z,1010.54
2017-07-31T09:56:19.913Z,1010.54
2017-07-31T09:57:29.208Z,1010.61
2017-07-31T09:58:38.175Z,1010.62
2017-07-31T09:59:47.140Z,1010.66
2017-07-31T10:00:56.426Z,1010.68
2017-07-31T10:02:05.395Z,1010.65
2017-07-31T10:03:14.357Z,1010.55
2017-07-31T10:04:23.311Z,1010.72
2017-07-31T10:05:32.271Z,1010.72
2017-07-31T10:06:41.249Z,1010.75
2017-07-31T10:07:50.216Z,1010.7
2017-07-31T10:08:59.181Z,1010.71
2017-07-31T10:10:08.481Z,1010.74
2017-07-31T10:11:17.461Z,1010.67
2017-07-31T10:12:26.430Z,1010.65
2017-07-31T10:13:35.392Z,1010.67
2017-07-31T10:14:44.356Z,1010.62
2017-07-31T10:15:53.324Z,1010.67
2017-07-31T10:17:02.341Z,1010.66
2017-07-31T10:18:12.237Z,1010.63
2017-07-31T10:19:21.516Z,1010.63
2017-07-31T10:20:30.476Z,1010.67
2017-07-31T10:21:40.098Z,1010.67
2017-07-31T10:22:49.057Z,1010.72
2017-07-31T10:23:58.031Z,1010.77
2017-07-31T10:25:07.331Z,1010.73
2017-07-31T10:26:16.302Z,1010.76
2017-07-31T10:27:25.266Z,1010.72
2017-07-31T10:28:34.240Z,1010.81
2017-07-31T10:29:43.204Z,1010.75
2017-07-31T10:30:52.169Z,1010.77
2017-07-31T10:32:01.350Z,1010.84
2017-07-31T10:33:10.671Z,1010.79
2017-07-31T10:34:19.654Z,1010.78
2017-07-31T10:35:28.631Z,1010.85
2017-07-31T10:36:37.626Z,1010.8
2017-07-31T10:37:46.616Z,1010.81
2017-07-31T10:38:55.643Z,1010.8
2017-07-31T10:40:04.629Z,1010.83
2017-07-31T10:41:13.613Z,1010.82
2017-07-31T10:42:22.600Z,1010.86
2017-07-31T10:43:31.591Z,1010.84
2017-07-31T10:44:40.573Z,1010.85
2017-07-31T10:45:49.559Z,1010.88
2017-07-31T10:46:58.539Z,1010.89
2017-07-31T10:48:07.526Z,1010.93
2017-07-31T10:49:16.512Z,1010.92
2017-07-31T10:50:25.501Z,1010.86
2017-07-31T10:51:34.488Z,1010.9
2017-07-31T10:52:43.480Z,1010.88
2017-07-31T10:53:52.468Z,1010.97
2017-07-31T10:55:01.461Z,1010.96
2017-07-31T10:56:10.447Z,1010.93
2017-07-31T10:57:19.456Z,1010.93
2017-07-31T10:58:28.445Z,1011.05
2017-07-31T10:59:37.441Z,1011.04
2017-07-31T11:00:48.075Z,1011.01
2017-07-31T11:02:09.958Z,1010.98
2017-07-31T11:03:31.509Z,1010.98
2017-07-31T11:04:48.649Z,1010.98
2017-07-31T11:05:57.632Z,1011
2017-07-31T11:07:06.629Z,1011.02
2017-07-31T11:08:15.626Z,1011.05
2017-07-31T11:09:24.620Z,1010.91
2017-07-31T11:10:33.607Z,1010.92
2017-07-31T11:11:42.594Z,1011
2017-07-31T11:12:51.597Z,1010.96
2017-07-31T11:14:00.591Z,1010.96
2017-07-31T11:15:09.572Z,1010.92
2017-07-31T11:16:18.566Z,1010.93
2017-07-31T11:17:27.556Z,1010.93
2017-07-31T11:18:36.872Z,1010.95
2017-07-31T11:19:45.848Z,1010.94
2017-07-31T11:20:54.845Z,1010.91
2017-07-31T11:22:04.163Z,1010.88
2017-07-31T11:23:13.152Z,1010.86
2017-07-31T11:24:22.133Z,1010.87
2017-07-31T11:25:31.123Z,1010.8
2017-07-31T11:26:40.107Z,1010.79
2017-07-31T11:27:49.105Z,1010.78
2017-07-31T11:28:58.083Z,1010.78
2017-07-31T11:30:07.077Z,1010.76
2017-07-31T11:31:16.088Z,1010.81
2017-07-31T11:32:25.128Z,1010.85
2017-07-31T11:33:34.753Z,1010.81
2017-07-31T11:34:43.739Z,1010.72
2017-07-31T11:35:52.707Z,1010.79
2017-07-31T11:37:01.663Z,1010.76
2017-07-31T11:38:10.622Z,1010.81
2017-07-31T11:39:19.596Z,1010.76
2017-07-31T11:40:28.567Z,1010.77
2017-07-31T11:41:37.570Z,1010.73
2017-07-31T11:42:46.863Z,1010.73
2017-07-31T11:43:55.827Z,1010.71
2017-07-31T11:45:04.793Z,1010.76
2017-07-31T11:46:13.758Z,1010.71
2017-07-31T11:47:22.724Z,1010.73
2017-07-31T11:48:31.690Z,1010.76
2017-07-31T11:49:40.652Z,1010.8
2017-07-31T11:50:49.618Z,1010.82
2017-07-31T11:51:58.587Z,1010.79
2017-07-31T11:53:07.550Z,1010.83
2017-07-31T11:54:16.531Z,1010.79
2017-07-31T11:55:25.514Z,1010.83
2017-07-31T11:56:34.483Z,1010.77
2017-07-31T11:57:43.449Z,1010.64
2017-07-31T11:58:52.626Z,1010.67
2017-07-31T12:00:03.157Z,1010.7
2017-07-31T12:01:12.124Z,1010.71
2017-07-31T12:02:21.088Z,1010.68
2017-07-31T12:03:30.051Z,1010.66
2017-07-31T12:04:39.006Z,1010.68
2017-07-31T12:05:47.972Z,1010.73
2017-07-31T12:06:56.940Z,1010.71
2017-07-31T12:08:05.897Z,1010.69
2017-07-31T12:09:14.864Z,1010.69
2017-07-31T12:10:23.824Z,1010.71
2017-07-31T12:11:32.784Z,1010.65
2017-07-31T12:12:41.748Z,1010.63
2017-07-31T12:13:50.783Z,1010.64
2017-07-31T12:14:59.750Z,1010.62
2017-07-31T12:16:09.030Z,1010.7
2017-07-31T12:17:17.987Z,1010.66
2017-07-31T12:18:26.947Z,1010.64
2017-07-31T12:19:35.904Z,1010.57
2017-07-31T12:20:44.873Z,1010.63
2017-07-31T12:21:53.835Z,1010.69
2017-07-31T12:23:03.118Z,1010.72
2017-07-31T12:24:12.083Z,1010.62
2017-07-31T12:25:21.381Z,1010.62
2017-07-31T12:26:30.679Z,1010.61
2017-07-31T12:27:39.657Z,1010.56
2017-07-31T12:28:48.625Z,1010.62
2017-07-31T12:29:57.592Z,1010.59
2017-07-31T12:31:06.888Z,1010.57
2017-07-31T12:32:16.175Z,1010.58
2017-07-31T12:33:25.149Z,1010.58
2017-07-31T12:34:34.143Z,1010.52
2017-07-31T12:35:43.110Z,1010.56
2017-07-31T12:36:52.069Z,1010.46
2017-07-31T12:38:01.027Z,1010.43
2017-07-31T12:39:10.014Z,1010.56
2017-07-31T12:40:18.973Z,1010.53
2017-07-31T12:41:28.270Z,1010.55
2017-07-31T12:42:37.232Z,1010.47
2017-07-31T12:43:46.197Z,1010.59
2017-07-31T12:44:55.162Z,1010.59
2017-07-31T12:46:04.136Z,1010.49
2017-07-31T12:47:13.096Z,1010.52
2017-07-31T12:48:22.379Z,1010.54
2017-07-31T12:49:31.339Z,1010.68
2017-07-31T12:50:40.309Z,1010.59
2017-07-31T12:51:49.275Z,1010.57
2017-07-31T12:52:58.247Z,1010.54
2017-07-31T12:54:07.228Z,1010.55
2017-07-31T12:55:16.194Z,1010.57
2017-07-31T12:56:25.239Z,1010.58
2017-07-31T12:57:34.339Z,1010.57
2017-07-31T12:58:43.759Z,1010.56
2017-07-31T12:59:52.848Z,1010.65
2017-07-31T13:01:01.985Z,1010.61
2017-07-31T13:02:11.143Z,1010.62
2017-07-31T13:03:20.568Z,1010.61
2017-07-31T13:04:29.662Z,1010.57
2017-07-31T13:05:39.350Z,1010.61
2017-07-31T13:06:48.319Z,1010.58
2017-07-31T13:07:57.289Z,1010.61
2017-07-31T13:09:06.263Z,1010.61
2017-07-31T13:10:15.518Z,1010.64
2017-07-31T13:11:24.613Z,1010.6
2017-07-31T13:12:33.570Z,1010.59
2017-07-31T13:13:42.529Z,1010.62
2017-07-31T13:14:51.663Z,1010.59
2017-07-31T13:16:00.626Z,1010.59
2017-07-31T13:17:09.930Z,1010.64
2017-07-31T13:18:18.900Z,1010.63
2017-07-31T13:19:27.867Z,1010.53
2017-07-31T13:20:36.874Z,1010.55
2017-07-31T13:21:46.079Z,1010.57
2017-07-31T13:22:55.044Z,1010.55
2017-07-31T13:24:03.999Z,1010.52
2017-07-31T13:25:12.973Z,1010.54
2017-07-31T13:26:21.925Z,1010.57
2017-07-31T13:27:30.886Z,1010.6
2017-07-31T13:28:39.858Z,1010.63
2017-07-31T13:29:48.821Z,1010.61
2017-07-31T13:30:58.223Z,1010.67
2017-07-31T13:32:07.538Z,1010.66
2017-07-31T13:33:16.498Z,1010.65
2017-07-31T13:34:25.462Z,1010.7
2017-07-31T13:35:34.445Z,1010.66
2017-07-31T13:36:43.414Z,1010.67
2017-07-31T13:37:52.471Z,1010.73
2017-07-31T13:39:01.857Z,1010.66
2017-07-31T13:40:10.832Z,1010.64
2017-07-31T13:41:19.801Z,1010.55
2017-07-31T13:42:28.764Z,1010.57
2017-07-31T13:43:37.731Z,1010.58
2017-07-31T13:44:46.690Z,1010.62
2017-07-31T13:45:55.651Z,1010.57
2017-07-31T13:47:04.611Z,1010.63
2017-07-31T13:48:13.579Z,1010.61
2017-07-31T13:49:22.544Z,1010.63
2017-07-31T13:50:31.499Z,1010.66
2017-07-31T13:51:40.787Z,1010.65
2017-07-31T13:52:49.753Z,1010.53
2017-07-31T13:53:58.715Z,1010.55
2017-07-31T13:55:07.678Z,1010.51
2017-07-31T13:56:16.642Z,1010.53
2017-07-31T13:57:25.613Z,1010.55
2017-07-31T13:58:34.580Z,1010.55